sensor_id;sensor_type;location;lat;lon;timestamp;temperature;humidity
66337;SHT30;53139;45.576;5.304;2023-02-20T00:00:23;3.40;92.73
66337;SHT30;53139;45.576;5.304;2023-02-20T00:03:24;3.48;92.46
66337;SHT30;53139;45.576;5.304;2023-02-20T00:06:25;3.27;91.60
66337;SHT30;53139;45.576;5.304;2023-02-20T00:09:25;3.10;91.52
66337;SHT30;53139;45.576;5.304;2023-02-20T00:12:27;3.00;92.93
66337;SHT30;53139;45.576;5.304;2023-02-20T00:15:27;3.02;95.39
66337;SHT30;53139;45.576;5.304;2023-02-20T00:18:28;2.92;91.57
66337;SHT30;53139;45.576;5.304;2023-02-20T00:21:28;2.70;91.69
66337;SHT30;53139;45.576;5.304;2023-02-20T00:24:28;2.60;92.19
66337;SHT30;53139;45.576;5.304;2023-02-20T00:27:29;2.55;92.59
66337;SHT30;53139;45.576;5.304;2023-02-20T00:30:29;2.77;94.62
66337;SHT30;53139;45.576;5.304;2023-02-20T00:33:30;2.64;94.56
66337;SHT30;53139;45.576;5.304;2023-02-20T00:36:30;2.82;95.00
66337;SHT30;53139;45.576;5.304;2023-02-20T00:39:31;2.71;91.82
66337;SHT30;53139;45.576;5.304;2023-02-20T00:42:31;2.32;92.61
66337;SHT30;53139;45.576;5.304;2023-02-20T00:45:32;2.48;93.25
66337;SHT30;53139;45.576;5.304;2023-02-20T00:48:32;2.33;92.26
66337;SHT30;53139;45.576;5.304;2023-02-20T00:51:32;2.17;91.70
66337;SHT30;53139;45.576;5.304;2023-02-20T00:54:35;2.32;93.37
66337;SHT30;53139;45.576;5.304;2023-02-20T00:57:35;2.45;95.08
66337;SHT30;53139;45.576;5.304;2023-02-20T01:00:36;2.45;94.61
66337;SHT30;53139;45.576;5.304;2023-02-20T01:03:36;2.40;94.97
66337;SHT30;53139;45.576;5.304;2023-02-20T01:06:37;2.55;95.13
66337;SHT30;53139;45.576;5.304;2023-02-20T01:09:37;2.44;94.03
66337;SHT30;53139;45.576;5.304;2023-02-20T01:12:37;2.55;95.13
66337;SHT30;53139;45.576;5.304;2023-02-20T01:15:38;2.66;95.17
66337;SHT30;53139;45.576;5.304;2023-02-20T01:18:38;2.58;95.21
66337;SHT30;53139;45.576;5.304;2023-02-20T01:21:39;2.40;93.14
66337;SHT30;53139;45.576;5.304;2023-02-20T01:24:39;2.13;92.39
66337;SHT30;53139;45.576;5.304;2023-02-20T01:27:40;2.19;93.38
66337;SHT30;53139;45.576;5.304;2023-02-20T01:30:41;1.97;92.51
66337;SHT30;53139;45.576;5.304;2023-02-20T01:33:42;1.97;92.86
66337;SHT30;53139;45.576;5.304;2023-02-20T01:36:47;1.71;93.24
66337;SHT30;53139;45.576;5.304;2023-02-20T01:39:48;1.61;93.56
66337;SHT30;53139;45.576;5.304;2023-02-20T01:42:49;1.64;95.25
66337;SHT30;53139;45.576;5.304;2023-02-20T01:45:49;1.48;92.89
66337;SHT30;53139;45.576;5.304;2023-02-20T01:48:49;1.37;93.33
66337;SHT30;53139;45.576;5.304;2023-02-20T01:51:55;1.37;94.00
66337;SHT30;53139;45.576;5.304;2023-02-20T01:58:28;1.10;92.25
66337;SHT30;53139;45.576;5.304;2023-02-20T02:01:31;1.12;92.70
66337;SHT30;53139;45.576;5.304;2023-02-20T02:04:33;1.09;94.86
66337;SHT30;53139;45.576;5.304;2023-02-20T02:07:35;1.37;95.70
66337;SHT30;53139;45.576;5.304;2023-02-20T02:10:47;1.48;96.93
66337;SHT30;53139;45.576;5.304;2023-02-20T02:13:49;1.64;94.96
66337;SHT30;53139;45.576;5.304;2023-02-20T02:17:11;1.42;93.58
66337;SHT30;53139;45.576;5.304;2023-02-20T02:34:09;1.25;94.80
66337;SHT30;53139;45.576;5.304;2023-02-20T02:41:25;1.46;95.82
66337;SHT30;53139;45.576;5.304;2023-02-20T02:47:30;1.34;95.72
66337;SHT30;53139;45.576;5.304;2023-02-20T02:50:35;1.20;94.85
66337;SHT30;53139;45.576;5.304;2023-02-20T02:53:37;1.17;93.65
66337;SHT30;53139;45.576;5.304;2023-02-20T02:56:43;1.06;95.57
66337;SHT30;53139;45.576;5.304;2023-02-20T02:59:50;0.96;94.20
66337;SHT30;53139;45.576;5.304;2023-02-20T03:02:57;0.95;93.54
66337;SHT30;53139;45.576;5.304;2023-02-20T03:06:07;1.03;95.74
66337;SHT30;53139;45.576;5.304;2023-02-20T03:09:16;0.84;94.33
66337;SHT30;53139;45.576;5.304;2023-02-20T03:12:20;1.06;96.19
66337;SHT30;53139;45.576;5.304;2023-02-20T03:15:35;1.05;95.81
66337;SHT30;53139;45.576;5.304;2023-02-20T03:18:39;1.00;95.26
66337;SHT30;53139;45.576;5.304;2023-02-20T03:21:43;0.79;94.39
66337;SHT30;53139;45.576;5.304;2023-02-20T03:24:49;0.81;95.23
66337;SHT30;53139;45.576;5.304;2023-02-20T03:28:00;0.65;94.68
66337;SHT30;53139;45.576;5.304;2023-02-20T03:31:13;0.88;95.95
66337;SHT30;53139;45.576;5.304;2023-02-20T03:34:19;0.77;93.13
66337;SHT30;53139;45.576;5.304;2023-02-20T03:37:42;0.56;96.64
66337;SHT30;53139;45.576;5.304;2023-02-20T03:41:03;0.75;95.75
66337;SHT30;53139;45.576;5.304;2023-02-20T03:44:24;0.84;96.22
66337;SHT30;53139;45.576;5.304;2023-02-20T03:47:27;0.77;95.11
66337;SHT30;53139;45.576;5.304;2023-02-20T03:50:28;0.60;94.76
66337;SHT30;53139;45.576;5.304;2023-02-20T03:53:30;0.53;94.12
66337;SHT30;53139;45.576;5.304;2023-02-20T03:56:36;0.46;94.24
66337;SHT30;53139;45.576;5.304;2023-02-20T03:59:43;0.58;96.92
66337;SHT30;53139;45.576;5.304;2023-02-20T04:02:47;0.50;95.94
66337;SHT30;53139;45.576;5.304;2023-02-20T04:05:53;0.43;96.52
66337;SHT30;53139;45.576;5.304;2023-02-20T04:09:01;0.56;96.26
66337;SHT30;53139;45.576;5.304;2023-02-20T04:12:08;0.50;96.66
66337;SHT30;53139;45.576;5.304;2023-02-20T04:15:12;0.72;96.91
66337;SHT30;53139;45.576;5.304;2023-02-20T04:18:18;0.79;96.09
66337;SHT30;53139;45.576;5.304;2023-02-20T04:21:25;0.60;96.77
66337;SHT30;53139;45.576;5.304;2023-02-20T04:24:55;0.57;97.68
66337;SHT30;53139;45.576;5.304;2023-02-20T04:27:57;0.62;97.71
66337;SHT30;53139;45.576;5.304;2023-02-20T04:30:57;0.65;96.90
66337;SHT30;53139;45.576;5.304;2023-02-20T04:33:57;0.67;97.11
66337;SHT30;53139;45.576;5.304;2023-02-20T04:37:10;0.72;96.68
66337;SHT30;53139;45.576;5.304;2023-02-20T04:40:12;0.60;96.27
66337;SHT30;53139;45.576;5.304;2023-02-20T04:43:13;0.44;95.08
66337;SHT30;53139;45.576;5.304;2023-02-20T04:46:13;0.33;94.38
66337;SHT30;53139;45.576;5.304;2023-02-20T04:49:14;0.29;95.33
66337;SHT30;53139;45.576;5.304;2023-02-20T04:52:15;0.37;95.14
66337;SHT30;53139;45.576;5.304;2023-02-20T04:55:15;0.20;95.25
66337;SHT30;53139;45.576;5.304;2023-02-20T04:58:16;0.29;96.20
66337;SHT30;53139;45.576;5.304;2023-02-20T05:01:16;0.29;96.42
66337;SHT30;53139;45.576;5.304;2023-02-20T05:04:18;0.58;97.56
66337;SHT30;53139;45.576;5.304;2023-02-20T05:07:19;0.70;97.18
66337;SHT30;53139;45.576;5.304;2023-02-20T05:10:20;0.70;96.63
66337;SHT30;53139;45.576;5.304;2023-02-20T05:13:21;0.57;95.21
66337;SHT30;53139;45.576;5.304;2023-02-20T05:16:21;0.43;95.51
66337;SHT30;53139;45.576;5.304;2023-02-20T05:19:21;0.37;95.90
66337;SHT30;53139;45.576;5.304;2023-02-20T05:22:22;0.23;97.03
66337;SHT30;53139;45.576;5.304;2023-02-20T05:25:22;0.16;96.38
66337;SHT30;53139;45.576;5.304;2023-02-20T05:28:23;0.32;97.55
66337;SHT30;53139;45.576;5.304;2023-02-20T05:31:23;0.49;97.29
66337;SHT30;53139;45.576;5.304;2023-02-20T05:34:26;0.53;97.53
66337;SHT30;53139;45.576;5.304;2023-02-20T05:37:27;0.53;96.68
66337;SHT30;53139;45.576;5.304;2023-02-20T05:40:27;0.34;96.65
66337;SHT30;53139;45.576;5.304;2023-02-20T05:43:28;0.23;97.50
66337;SHT30;53139;45.576;5.304;2023-02-20T05:46:28;0.23;96.90
66337;SHT30;53139;45.576;5.304;2023-02-20T05:49:29;0.24;95.64
66337;SHT30;53139;45.576;5.304;2023-02-20T05:52:30;0.19;95.27
66337;SHT30;53139;45.576;5.304;2023-02-20T05:55:30;0.03;95.45
66337;SHT30;53139;45.576;5.304;2023-02-20T05:58:31;0.01;95.39
66337;SHT30;53139;45.576;5.304;2023-02-20T06:01:31;0.12;97.43
66337;SHT30;53139;45.576;5.304;2023-02-20T06:04:32;-0.02;96.60
66337;SHT30;53139;45.576;5.304;2023-02-20T06:07:33;0.12;97.17
66337;SHT30;53139;45.576;5.304;2023-02-20T06:10:34;0.10;96.41
66337;SHT30;53139;45.576;5.304;2023-02-20T06:13:34;0.13;96.81
66337;SHT30;53139;45.576;5.304;2023-02-20T06:16:35;-0.13;94.42
66337;SHT30;53139;45.576;5.304;2023-02-20T06:19:35;-0.19;95.27
66337;SHT30;53139;45.576;5.304;2023-02-20T06:22:36;-0.18;95.46
66337;SHT30;53139;45.576;5.304;2023-02-20T06:25:36;-0.48;93.97
66337;SHT30;53139;45.576;5.304;2023-02-20T06:28:37;-0.43;95.24
66337;SHT30;53139;45.576;5.304;2023-02-20T06:31:37;-0.33;95.65
66337;SHT30;53139;45.576;5.304;2023-02-20T06:34:38;-0.40;94.96
66337;SHT30;53139;45.576;5.304;2023-02-20T06:37:38;-0.12;96.96
66337;SHT30;53139;45.576;5.304;2023-02-20T06:40:39;-0.18;96.77
66337;SHT30;53139;45.576;5.304;2023-02-20T06:43:39;-0.26;97.09
66337;SHT30;53139;45.576;5.304;2023-02-20T06:46:39;-0.15;97.62
66337;SHT30;53139;45.576;5.304;2023-02-20T06:49:40;0.15;96.74
66337;SHT30;53139;45.576;5.304;2023-02-20T06:52:42;0.17;96.39
66337;SHT30;53139;45.576;5.304;2023-02-20T06:55:42;0.15;96.98
66337;SHT30;53139;45.576;5.304;2023-02-20T06:58:45;0.27;96.92
66337;SHT30;53139;45.576;5.304;2023-02-20T07:01:46;0.30;97.18
66337;SHT30;53139;45.576;5.304;2023-02-20T07:04:47;0.47;96.93
66337;SHT30;53139;45.576;5.304;2023-02-20T07:07:48;0.60;96.55
66337;SHT30;53139;45.576;5.304;2023-02-20T07:10:48;0.57;96.62
66337;SHT30;53139;45.576;5.304;2023-02-20T07:13:49;0.74;96.79
66337;SHT30;53139;45.576;5.304;2023-02-20T07:16:50;0.93;97.14
66337;SHT30;53139;45.576;5.304;2023-02-20T07:19:50;0.92;96.73
66337;SHT30;53139;45.576;5.304;2023-02-20T07:22:51;1.10;96.65
66337;SHT30;53139;45.576;5.304;2023-02-20T07:25:53;1.17;96.37
66337;SHT30;53139;45.576;5.304;2023-02-20T07:28:54;1.30;96.07
66337;SHT30;53139;45.576;5.304;2023-02-20T07:31:57;1.34;96.33
66337;SHT30;53139;45.576;5.304;2023-02-20T07:34:58;1.43;95.97
66337;SHT30;53139;45.576;5.304;2023-02-20T07:37:58;1.53;95.44
66337;SHT30;53139;45.576;5.304;2023-02-20T07:40:58;1.62;95.62
66337;SHT30;53139;45.576;5.304;2023-02-20T07:43:59;1.82;95.92
66337;SHT30;53139;45.576;5.304;2023-02-20T07:46:59;1.88;95.79
66337;SHT30;53139;45.576;5.304;2023-02-20T07:49:59;2.09;95.49
66337;SHT30;53139;45.576;5.304;2023-02-20T07:53:00;2.22;95.32
66337;SHT30;53139;45.576;5.304;2023-02-20T07:56:01;2.34;95.41
66337;SHT30;53139;45.576;5.304;2023-02-20T07:59:01;2.50;94.91
66337;SHT30;53139;45.576;5.304;2023-02-20T08:02:02;2.72;94.32
66337;SHT30;53139;45.576;5.304;2023-02-20T08:05:02;2.92;94.15
66337;SHT30;53139;45.576;5.304;2023-02-20T08:08:03;3.16;93.45
66337;SHT30;53139;45.576;5.304;2023-02-20T08:11:04;3.28;93.65
66337;SHT30;53139;45.576;5.304;2023-02-20T08:14:05;3.72;92.59
66337;SHT30;53139;45.576;5.304;2023-02-20T08:17:06;3.86;92.52
66337;SHT30;53139;45.576;5.304;2023-02-20T08:20:07;4.27;91.95
66337;SHT30;53139;45.576;5.304;2023-02-20T08:23:19;4.48;91.65
66337;SHT30;53139;45.576;5.304;2023-02-20T08:26:20;4.82;91.07
66337;SHT30;53139;45.576;5.304;2023-02-20T08:29:21;5.08;90.82
66337;SHT30;53139;45.576;5.304;2023-02-20T08:32:21;5.31;92.26
66337;SHT30;53139;45.576;5.304;2023-02-20T08:35:22;5.61;91.18
66337;SHT30;53139;45.576;5.304;2023-02-20T08:38:36;5.54;91.03
66337;SHT30;53139;45.576;5.304;2023-02-20T08:41:44;6.23;90.11
66337;SHT30;53139;45.576;5.304;2023-02-20T08:44:45;6.44;89.62
66337;SHT30;53139;45.576;5.304;2023-02-20T08:47:45;6.92;89.04
66337;SHT30;53139;45.576;5.304;2023-02-20T08:50:47;6.72;88.26
66337;SHT30;53139;45.576;5.304;2023-02-20T08:53:48;7.22;87.84
66337;SHT30;53139;45.576;5.304;2023-02-20T08:56:48;7.38;87.03
66337;SHT30;53139;45.576;5.304;2023-02-20T08:59:49;7.88;85.83
66337;SHT30;53139;45.576;5.304;2023-02-20T09:02:49;8.13;85.11
66337;SHT30;53139;45.576;5.304;2023-02-20T09:05:49;8.41;85.33
66337;SHT30;53139;45.576;5.304;2023-02-20T09:08:51;8.41;82.30
66337;SHT30;53139;45.576;5.304;2023-02-20T09:11:51;8.99;83.93
66337;SHT30;53139;45.576;5.304;2023-02-20T09:14:52;8.99;83.69
66337;SHT30;53139;45.576;5.304;2023-02-20T09:17:52;9.17;83.59
66337;SHT30;53139;45.576;5.304;2023-02-20T09:20:53;9.30;82.56
66337;SHT30;53139;45.576;5.304;2023-02-20T09:23:54;9.28;84.05
66337;SHT30;53139;45.576;5.304;2023-02-20T09:26:54;9.78;82.20
66337;SHT30;53139;45.576;5.304;2023-02-20T09:29:54;9.77;82.88
66337;SHT30;53139;45.576;5.304;2023-02-20T09:32:55;9.44;82.08
66337;SHT30;53139;45.576;5.304;2023-02-20T09:35:55;10.00;80.62
66337;SHT30;53139;45.576;5.304;2023-02-20T09:38:56;9.99;78.81
66337;SHT30;53139;45.576;5.304;2023-02-20T09:45:17;10.57;76.98
66337;SHT30;53139;45.576;5.304;2023-02-20T09:51:31;11.12;73.81
66337;SHT30;53139;45.576;5.304;2023-02-20T09:54:42;11.07;75.80
66337;SHT30;53139;45.576;5.304;2023-02-20T09:57:47;11.50;76.19
66337;SHT30;53139;45.576;5.304;2023-02-20T10:00:49;11.82;72.72
66337;SHT30;53139;45.576;5.304;2023-02-20T10:04:06;12.30;71.82
66337;SHT30;53139;45.576;5.304;2023-02-20T10:07:27;11.75;72.49
66337;SHT30;53139;45.576;5.304;2023-02-20T10:10:32;12.78;69.95
66337;SHT30;53139;45.576;5.304;2023-02-20T10:14:41;12.41;71.43
66337;SHT30;53139;45.576;5.304;2023-02-20T10:20:56;12.77;70.43
66337;SHT30;53139;45.576;5.304;2023-02-20T10:24:04;13.15;70.01
66337;SHT30;53139;45.576;5.304;2023-02-20T10:27:18;13.15;69.97
66337;SHT30;53139;45.576;5.304;2023-02-20T10:30:45;12.96;68.78
66337;SHT30;53139;45.576;5.304;2023-02-20T10:33:49;13.75;66.95
66337;SHT30;53139;45.576;5.304;2023-02-20T10:37:05;13.27;67.91
66337;SHT30;53139;45.576;5.304;2023-02-20T10:46:28;13.22;66.14
66337;SHT30;53139;45.576;5.304;2023-02-20T10:53:02;14.32;64.83
66337;SHT30;53139;45.576;5.304;2023-02-20T10:56:11;15.53;62.47
66337;SHT30;53139;45.576;5.304;2023-02-20T10:59:37;15.36;62.55
66337;SHT30;53139;45.576;5.304;2023-02-20T11:02:50;14.91;62.54
66337;SHT30;53139;45.576;5.304;2023-02-20T11:05:54;14.48;64.82
66337;SHT30;53139;45.576;5.304;2023-02-20T11:08:56;14.99;60.95
66337;SHT30;53139;45.576;5.304;2023-02-20T11:11:56;15.55;60.35
66337;SHT30;53139;45.576;5.304;2023-02-20T11:15:10;15.73;61.23
66337;SHT30;53139;45.576;5.304;2023-02-20T11:18:30;14.64;63.86
66337;SHT30;53139;45.576;5.304;2023-02-20T11:21:33;14.74;60.81
66337;SHT30;53139;45.576;5.304;2023-02-20T11:24:37;14.78;63.83
66337;SHT30;53139;45.576;5.304;2023-02-20T11:27:37;16.52;61.89
66337;SHT30;53139;45.576;5.304;2023-02-20T11:30:40;17.04;57.80
66337;SHT30;53139;45.576;5.304;2023-02-20T11:33:43;15.60;61.39
66337;SHT30;53139;45.576;5.304;2023-02-20T11:36:54;16.37;61.32
66337;SHT30;53139;45.576;5.304;2023-02-20T11:40:03;14.80;63.46
66337;SHT30;53139;45.576;5.304;2023-02-20T11:43:27;17.35;57.20
66337;SHT30;53139;45.576;5.304;2023-02-20T11:46:28;15.84;60.65
66337;SHT30;53139;45.576;5.304;2023-02-20T11:49:28;16.77;58.79
66337;SHT30;53139;45.576;5.304;2023-02-20T11:52:29;16.49;58.21
66337;SHT30;53139;45.576;5.304;2023-02-20T11:55:30;16.54;59.51
66337;SHT30;53139;45.576;5.304;2023-02-20T11:58:31;16.78;58.49
66337;SHT30;53139;45.576;5.304;2023-02-20T12:01:34;16.46;58.91
66337;SHT30;53139;45.576;5.304;2023-02-20T12:04:34;16.88;57.44
66337;SHT30;53139;45.576;5.304;2023-02-20T12:10:47;16.95;55.78
66337;SHT30;53139;45.576;5.304;2023-02-20T12:13:50;18.40;53.98
66337;SHT30;53139;45.576;5.304;2023-02-20T12:17:06;17.35;55.54
66337;SHT30;53139;45.576;5.304;2023-02-20T12:20:16;17.16;55.29
66337;SHT30;53139;45.576;5.304;2023-02-20T12:23:36;17.29;55.96
66337;SHT30;53139;45.576;5.304;2023-02-20T12:27:02;18.33;51.30
66337;SHT30;53139;45.576;5.304;2023-02-20T12:30:23;18.64;53.05
66337;SHT30;53139;45.576;5.304;2023-02-20T12:33:39;15.73;57.77
66337;SHT30;53139;45.576;5.304;2023-02-20T12:40:18;15.78;57.36
66337;SHT30;53139;45.576;5.304;2023-02-20T12:46:49;18.52;49.73
66337;SHT30;53139;45.576;5.304;2023-02-20T12:57:06;18.21;49.43
66337;SHT30;53139;45.576;5.304;2023-02-20T13:00:35;19.40;50.69
66337;SHT30;53139;45.576;5.304;2023-02-20T13:07:14;18.18;52.09
66337;SHT30;53139;45.576;5.304;2023-02-20T13:10:21;19.78;48.62
66337;SHT30;53139;45.576;5.304;2023-02-20T13:20:08;18.90;48.86
66337;SHT30;53139;45.576;5.304;2023-02-20T13:29:27;18.75;47.93
66337;SHT30;53139;45.576;5.304;2023-02-20T13:32:30;18.73;50.47
66337;SHT30;53139;45.576;5.304;2023-02-20T13:35:33;19.77;48.92
66337;SHT30;53139;45.576;5.304;2023-02-20T13:38:34;18.25;51.99
66337;SHT30;53139;45.576;5.304;2023-02-20T13:44:54;19.80;48.67
66337;SHT30;53139;45.576;5.304;2023-02-20T13:48:19;18.22;49.54
66337;SHT30;53139;45.576;5.304;2023-02-20T13:51:37;19.28;48.58
66337;SHT30;53139;45.576;5.304;2023-02-20T13:54:38;18.26;50.00
66337;SHT30;53139;45.576;5.304;2023-02-20T13:57:49;17.08;51.24
66337;SHT30;53139;45.576;5.304;2023-02-20T14:00:52;16.75;52.81
66337;SHT30;53139;45.576;5.304;2023-02-20T14:04:03;18.19;49.58
66337;SHT30;53139;45.576;5.304;2023-02-20T14:07:04;19.64;46.71
66337;SHT30;53139;45.576;5.304;2023-02-20T14:10:18;18.92;48.39
66337;SHT30;53139;45.576;5.304;2023-02-20T14:13:21;19.75;48.00
66337;SHT30;53139;45.576;5.304;2023-02-20T14:19:27;20.21;47.71
66337;SHT30;53139;45.576;5.304;2023-02-20T14:22:31;19.47;47.45
66337;SHT30;53139;45.576;5.304;2023-02-20T14:25:32;19.73;45.77
66337;SHT30;53139;45.576;5.304;2023-02-20T14:28:33;19.07;49.30
66337;SHT30;53139;45.576;5.304;2023-02-20T14:31:35;19.70;45.28
66337;SHT30;53139;45.576;5.304;2023-02-20T14:34:52;19.67;47.19
66337;SHT30;53139;45.576;5.304;2023-02-20T14:38:30;18.64;47.67
66337;SHT30;53139;45.576;5.304;2023-02-20T14:41:33;19.71;45.25
66337;SHT30;53139;45.576;5.304;2023-02-20T14:44:33;20.24;46.82
66337;SHT30;53139;45.576;5.304;2023-02-20T14:47:33;18.13;49.32
66337;SHT30;53139;45.576;5.304;2023-02-20T14:50:37;19.22;48.32
66337;SHT30;53139;45.576;5.304;2023-02-20T14:53:38;19.25;48.46
66337;SHT30;53139;45.576;5.304;2023-02-20T14:56:38;19.19;48.90
66337;SHT30;53139;45.576;5.304;2023-02-20T14:59:40;19.92;48.08
66337;SHT30;53139;45.576;5.304;2023-02-20T15:02:42;19.52;47.72
66337;SHT30;53139;45.576;5.304;2023-02-20T15:05:43;19.39;45.84
66337;SHT30;53139;45.576;5.304;2023-02-20T15:08:44;19.43;45.77
66337;SHT30;53139;45.576;5.304;2023-02-20T15:11:55;18.92;46.75
66337;SHT30;53139;45.576;5.304;2023-02-20T15:15:04;19.52;48.24
66337;SHT30;53139;45.576;5.304;2023-02-20T15:18:16;20.11;46.71
66337;SHT30;53139;45.576;5.304;2023-02-20T15:21:37;19.60;48.61
66337;SHT30;53139;45.576;5.304;2023-02-20T15:24:39;19.70;47.79
66337;SHT30;53139;45.576;5.304;2023-02-20T15:28:04;19.45;48.62
66337;SHT30;53139;45.576;5.304;2023-02-20T15:34:21;18.61;50.72
66337;SHT30;53139;45.576;5.304;2023-02-20T15:37:28;18.22;48.88
66337;SHT30;53139;45.576;5.304;2023-02-20T15:40:32;19.16;49.33
66337;SHT30;53139;45.576;5.304;2023-02-20T15:43:33;19.05;48.20
66337;SHT30;53139;45.576;5.304;2023-02-20T15:46:33;19.40;48.99
66337;SHT30;53139;45.576;5.304;2023-02-20T15:49:33;18.13;48.62
66337;SHT30;53139;45.576;5.304;2023-02-20T15:52:34;19.11;48.74
66337;SHT30;53139;45.576;5.304;2023-02-20T15:55:35;19.08;49.41
66337;SHT30;53139;45.576;5.304;2023-02-20T15:58:37;17.53;50.94
66337;SHT30;53139;45.576;5.304;2023-02-20T16:01:39;17.95;48.65
66337;SHT30;53139;45.576;5.304;2023-02-20T16:04:40;17.77;50.75
66337;SHT30;53139;45.576;5.304;2023-02-20T16:07:40;18.30;50.99
66337;SHT30;53139;45.576;5.304;2023-02-20T16:10:41;18.24;50.70
66337;SHT30;53139;45.576;5.304;2023-02-20T16:13:44;18.12;50.83
66337;SHT30;53139;45.576;5.304;2023-02-20T16:16:47;17.53;51.23
66337;SHT30;53139;45.576;5.304;2023-02-20T16:19:50;17.74;51.30
66337;SHT30;53139;45.576;5.304;2023-02-20T16:22:51;16.23;53.24
66337;SHT30;53139;45.576;5.304;2023-02-20T16:25:51;15.81;55.27
66337;SHT30;53139;45.576;5.304;2023-02-20T16:28:56;15.77;56.39
66337;SHT30;53139;45.576;5.304;2023-02-20T16:35:00;14.92;57.47
66337;SHT30;53139;45.576;5.304;2023-02-20T16:38:00;14.70;58.81
66337;SHT30;53139;45.576;5.304;2023-02-20T16:41:01;13.94;60.16
66337;SHT30;53139;45.576;5.304;2023-02-20T16:44:30;13.71;61.31
66337;SHT30;53139;45.576;5.304;2023-02-20T16:47:28;13.36;62.31
66337;SHT30;53139;45.576;5.304;2023-02-20T16:50:30;13.12;63.12
66337;SHT30;53139;45.576;5.304;2023-02-20T16:53:30;12.98;63.38
66337;SHT30;53139;45.576;5.304;2023-02-20T16:56:31;12.57;64.82
66337;SHT30;53139;45.576;5.304;2023-02-20T16:59:32;12.33;65.09
66337;SHT30;53139;45.576;5.304;2023-02-20T17:02:35;12.08;66.19
66337;SHT30;53139;45.576;5.304;2023-02-20T17:05:37;11.77;66.60
66337;SHT30;53139;45.576;5.304;2023-02-20T17:08:38;10.78;70.93
66337;SHT30;53139;45.576;5.304;2023-02-20T17:11:38;10.44;72.42
66337;SHT30;53139;45.576;5.304;2023-02-20T17:14:39;10.29;72.93
66337;SHT30;53139;45.576;5.304;2023-02-20T17:17:40;10.20;72.73
66337;SHT30;53139;45.576;5.304;2023-02-20T17:20:40;10.38;71.18
66337;SHT30;53139;45.576;5.304;2023-02-20T17:23:41;10.02;72.63
66337;SHT30;53139;45.576;5.304;2023-02-20T17:26:41;9.51;75.18
66337;SHT30;53139;45.576;5.304;2023-02-20T17:29:43;9.16;76.47
66337;SHT30;53139;45.576;5.304;2023-02-20T17:32:43;9.09;76.13
66337;SHT30;53139;45.576;5.304;2023-02-20T17:35:44;8.93;77.04
66337;SHT30;53139;45.576;5.304;2023-02-20T17:38:44;8.92;77.06
66337;SHT30;53139;45.576;5.304;2023-02-20T17:41:46;8.92;77.29
66337;SHT30;53139;45.576;5.304;2023-02-20T17:44:47;9.17;75.15
66337;SHT30;53139;45.576;5.304;2023-02-20T17:47:49;8.67;77.52
66337;SHT30;53139;45.576;5.304;2023-02-20T17:50:49;8.68;76.46
66337;SHT30;53139;45.576;5.304;2023-02-20T17:53:49;8.48;77.10
66337;SHT30;53139;45.576;5.304;2023-02-20T17:56:50;8.23;78.14
66337;SHT30;53139;45.576;5.304;2023-02-20T17:59:50;8.31;77.14
66337;SHT30;53139;45.576;5.304;2023-02-20T18:02:51;8.27;77.52
66337;SHT30;53139;45.576;5.304;2023-02-20T18:05:51;8.00;78.69
66337;SHT30;53139;45.576;5.304;2023-02-20T18:08:53;7.79;79.06
66337;SHT30;53139;45.576;5.304;2023-02-20T18:11:53;7.71;79.37
66337;SHT30;53139;45.576;5.304;2023-02-20T18:14:54;7.48;79.81
66337;SHT30;53139;45.576;5.304;2023-02-20T18:17:54;7.35;80.58
66337;SHT30;53139;45.576;5.304;2023-02-20T18:20:55;7.31;79.93
66337;SHT30;53139;45.576;5.304;2023-02-20T18:23:55;7.26;81.43
66337;SHT30;53139;45.576;5.304;2023-02-20T18:26:56;7.33;80.25
66337;SHT30;53139;45.576;5.304;2023-02-20T18:29:57;7.13;82.13
66337;SHT30;53139;45.576;5.304;2023-02-20T18:32:57;7.30;80.55
66337;SHT30;53139;45.576;5.304;2023-02-20T18:35:58;7.44;79.40
66337;SHT30;53139;45.576;5.304;2023-02-20T18:38:59;7.33;80.01
66337;SHT30;53139;45.576;5.304;2023-02-20T18:41:59;7.28;80.28
66337;SHT30;53139;45.576;5.304;2023-02-20T18:44:59;7.13;79.93
66337;SHT30;53139;45.576;5.304;2023-02-20T18:48:00;7.13;80.23
66337;SHT30;53139;45.576;5.304;2023-02-20T18:51:00;7.02;81.51
66337;SHT30;53139;45.576;5.304;2023-02-20T18:54:02;6.92;81.58
66337;SHT30;53139;45.576;5.304;2023-02-20T18:57:03;7.09;80.45
66337;SHT30;53139;45.576;5.304;2023-02-20T19:00:04;6.95;80.22
66337;SHT30;53139;45.576;5.304;2023-02-20T19:03:05;6.63;80.76
66337;SHT30;53139;45.576;5.304;2023-02-20T19:06:05;6.67;80.45
66337;SHT30;53139;45.576;5.304;2023-02-20T19:09:06;6.67;80.10
66337;SHT30;53139;45.576;5.304;2023-02-20T19:12:07;6.52;81.29
66337;SHT30;53139;45.576;5.304;2023-02-20T19:15:08;6.48;81.39
66337;SHT30;53139;45.576;5.304;2023-02-20T19:18:09;6.42;81.60
66337;SHT30;53139;45.576;5.304;2023-02-20T19:21:10;6.30;82.60
66337;SHT30;53139;45.576;5.304;2023-02-20T19:24:10;6.50;81.16
66337;SHT30;53139;45.576;5.304;2023-02-20T19:27:11;6.45;81.84
66337;SHT30;53139;45.576;5.304;2023-02-20T19:30:12;6.59;81.34
66337;SHT30;53139;45.576;5.304;2023-02-20T19:33:13;6.57;81.01
66337;SHT30;53139;45.576;5.304;2023-02-20T19:36:14;6.37;81.31
66337;SHT30;53139;45.576;5.304;2023-02-20T19:39:14;6.40;81.10
66337;SHT30;53139;45.576;5.304;2023-02-20T19:42:15;6.38;81.02
66337;SHT30;53139;45.576;5.304;2023-02-20T19:45:16;6.33;81.58
66337;SHT30;53139;45.576;5.304;2023-02-20T19:48:16;6.24;81.41
66337;SHT30;53139;45.576;5.304;2023-02-20T19:51:19;6.09;82.24
66337;SHT30;53139;45.576;5.304;2023-02-20T19:54:22;6.06;82.05
66337;SHT30;53139;45.576;5.304;2023-02-20T19:57:23;6.10;82.05
66337;SHT30;53139;45.576;5.304;2023-02-20T20:00:24;6.17;81.86
66337;SHT30;53139;45.576;5.304;2023-02-20T20:03:27;6.20;82.19
66337;SHT30;53139;45.576;5.304;2023-02-20T20:06:27;6.23;82.25
66337;SHT30;53139;45.576;5.304;2023-02-20T20:09:28;6.29;82.29
66337;SHT30;53139;45.576;5.304;2023-02-20T20:12:29;6.23;81.82
66337;SHT30;53139;45.576;5.304;2023-02-20T20:15:47;5.89;83.21
66337;SHT30;53139;45.576;5.304;2023-02-20T20:18:47;5.75;83.32
66337;SHT30;53139;45.576;5.304;2023-02-20T20:21:48;5.62;83.38
66337;SHT30;53139;45.576;5.304;2023-02-20T20:24:49;5.59;83.39
66337;SHT30;53139;45.576;5.304;2023-02-20T20:27:51;5.52;83.25
66337;SHT30;53139;45.576;5.304;2023-02-20T20:30:51;5.40;84.07
66337;SHT30;53139;45.576;5.304;2023-02-20T20:33:53;5.26;84.64
66337;SHT30;53139;45.576;5.304;2023-02-20T20:36:53;5.44;84.14
66337;SHT30;53139;45.576;5.304;2023-02-20T20:39:55;5.48;83.51
66337;SHT30;53139;45.576;5.304;2023-02-20T20:42:56;5.29;85.04
66337;SHT30;53139;45.576;5.304;2023-02-20T20:45:58;5.26;85.16
66337;SHT30;53139;45.576;5.304;2023-02-20T20:48:59;5.36;84.49
66337;SHT30;53139;45.576;5.304;2023-02-20T20:52:00;5.34;84.32
66337;SHT30;53139;45.576;5.304;2023-02-20T20:55:00;5.27;84.14
66337;SHT30;53139;45.576;5.304;2023-02-20T20:58:01;5.18;84.23
66337;SHT30;53139;45.576;5.304;2023-02-20T21:01:01;4.97;84.91